Holbrook, Nebraska
Current Conditions -  °F | °C
As of 7:53 AM on Tuesday 27 Jan 2015 (Local Time) from KMCK Reporting Station
Clear Clear  
Wind Chill: 26°   Ceiling: Unl
Heat Index: 35°   Visibility: 10mi
Dew Point: 29°   Wind: 13mph
Humidity: 78%   Direction: 250°WSW
Pressure: 30.07"   Gusts: NA
Location:  40.3°N, 100.01°W
Report Text: KMCK 271353Z AUTO 25011KT 10SM CLR 02/M02 A3007 RMK AO2 SLP194 T00171017
Loading
Personal Weather Stations






























Interactive Weather Map New forecast layout! Learn more

10-Day Weather Forecast

Advertisements
Track Severe Weather on mobile